createdAt,value
2023-01-19T00:01:12.516Z,0.01
2023-01-19T00:03:09.824Z,0.01
2023-01-19T00:05:09.298Z,0.01
2023-01-19T00:07:10.055Z,0.01
2023-01-19T00:09:09.626Z,0.01
2023-01-19T00:11:09.828Z,0.01
2023-01-19T00:13:10.010Z,0.01
2023-01-19T00:15:09.805Z,0.01
2023-01-19T00:17:10.465Z,0.01
2023-01-19T00:19:09.777Z,0.01
2023-01-19T00:21:09.563Z,0.01
2023-01-19T00:23:10.159Z,0.01
2023-01-19T00:25:09.076Z,0.01
2023-01-19T00:27:09.651Z,0.01
2023-01-19T00:29:09.692Z,0.01
2023-01-19T00:31:09.410Z,0.01
2023-01-19T00:33:10.180Z,0.01
2023-01-19T00:35:09.433Z,0.01
2023-01-19T00:37:09.864Z,0.01
2023-01-19T00:39:09.107Z,0.01
2023-01-19T00:41:09.891Z,0.01
2023-01-19T00:43:09.987Z,0.01
2023-01-19T00:45:09.512Z,0.01
2023-01-19T00:47:09.196Z,0.01
2023-01-19T00:49:09.520Z,0.01
2023-01-19T00:51:08.944Z,0.01
2023-01-19T00:53:09.717Z,0.01
2023-01-19T00:55:08.887Z,0.01
2023-01-19T00:57:09.657Z,0.01
2023-01-19T00:59:08.862Z,0.01
2023-01-19T01:01:12.955Z,0.01
2023-01-19T01:03:11.955Z,0.01
2023-01-19T01:05:08.954Z,0.01
2023-01-19T01:07:09.214Z,0.01
2023-01-19T01:09:09.721Z,0.01
2023-01-19T01:11:09.501Z,0.01
2023-01-19T01:13:44.203Z,0.01
2023-01-19T01:15:09.614Z,0.01
2023-01-19T01:17:09.530Z,0.01
2023-01-19T01:19:09.665Z,0.01
2023-01-19T01:21:08.942Z,0.01
2023-01-19T01:23:10.410Z,0.01
2023-01-19T01:25:09.310Z,0.01
2023-01-19T01:27:12.254Z,0.01
2023-01-19T01:29:09.112Z,0.01
2023-01-19T01:31:09.760Z,0.01
2023-01-19T01:33:09.729Z,0.01
2023-01-19T01:35:09.558Z,0.01
2023-01-19T01:37:09.053Z,0.01
2023-01-19T01:39:09.699Z,0.01
2023-01-19T01:41:09.341Z,0.01
2023-01-19T01:43:10.894Z,0.01
2023-01-19T01:45:09.473Z,0.01
2023-01-19T01:47:10.105Z,0.01
2023-01-19T01:49:09.486Z,0.01
2023-01-19T01:51:08.852Z,0.01
2023-01-19T01:53:30.294Z,0.01
2023-01-19T01:55:09.033Z,0.01
2023-01-19T01:57:09.362Z,0.01
2023-01-19T01:59:09.747Z,0.01
2023-01-19T02:01:12.710Z,0.01
2023-01-19T02:03:10.626Z,0.01
2023-01-19T02:05:09.029Z,0.01
2023-01-19T02:07:09.393Z,0.01
2023-01-19T02:09:09.036Z,0.01
2023-01-19T02:11:09.545Z,0.01
2023-01-19T02:13:09.857Z,0.01
2023-01-19T02:15:09.510Z,0.01
2023-01-19T02:17:09.451Z,0.01
2023-01-19T02:19:09.828Z,0.01
2023-01-19T02:21:09.230Z,0.01
2023-01-19T02:23:08.814Z,0.01
2023-01-19T02:25:09.581Z,0.01
2023-01-19T02:27:09.195Z,0.01
2023-01-19T02:29:09.468Z,0.01
2023-01-19T02:31:09.694Z,0.01
2023-01-19T02:33:10.495Z,0.01
2023-01-19T02:35:09.482Z,0.01
2023-01-19T02:37:09.715Z,0.01
2023-01-19T02:39:09.223Z,0.01
2023-01-19T02:41:09.636Z,0.01
2023-01-19T02:43:09.733Z,0.01
2023-01-19T02:45:09.362Z,0.01
2023-01-19T02:47:10.141Z,0.01
2023-01-19T02:49:09.364Z,0.01
2023-01-19T02:51:09.865Z,0.01
2023-01-19T02:53:10.018Z,0.01
2023-01-19T02:55:09.073Z,0.01
2023-01-19T02:57:09.473Z,0.01
2023-01-19T02:59:08.870Z,0.01
2023-01-19T03:01:13.148Z,0.01
2023-01-19T03:03:10.586Z,0.01
2023-01-19T03:05:09.027Z,0.01
2023-01-19T03:07:09.341Z,0.01
2023-01-19T03:09:08.981Z,0.01
2023-01-19T03:11:09.733Z,0.01
2023-01-19T03:13:09.065Z,0.01
2023-01-19T03:15:09.809Z,0.01
2023-01-19T03:17:09.699Z,0.01
2023-01-19T03:19:09.696Z,0.01
2023-01-19T03:21:09.479Z,0.01
2023-01-19T03:23:10.468Z,0.01
2023-01-19T03:25:11.541Z,0.01
2023-01-19T03:27:09.906Z,0.01
2023-01-19T03:29:09.056Z,0.01
2023-01-19T03:31:10.002Z,0.01
2023-01-19T03:33:09.987Z,0.01
2023-01-19T03:35:09.584Z,0.01
2023-01-19T03:37:09.108Z,0.01
2023-01-19T03:39:09.824Z,0.01
2023-01-19T03:41:09.416Z,0.01
2023-01-19T03:43:10.377Z,0.01
2023-01-19T03:45:09.338Z,0.01
2023-01-19T03:47:09.321Z,0.01
2023-01-19T03:49:09.567Z,0.01
2023-01-19T03:51:09.431Z,0.01
2023-01-19T03:53:10.151Z,0.01
2023-01-19T03:55:09.304Z,0.01
2023-01-19T03:57:09.940Z,0.01
2023-01-19T03:59:09.348Z,0.01
2023-01-19T04:01:12.980Z,0.01
2023-01-19T04:03:10.550Z,0.01
2023-01-19T04:05:09.544Z,0.01
2023-01-19T04:07:09.118Z,0.01
2023-01-19T04:09:09.268Z,0.01
2023-01-19T04:11:10.033Z,0.01
2023-01-19T04:13:09.708Z,0.01
2023-01-19T04:15:08.872Z,0.01
2023-01-19T04:17:09.626Z,0.01
2023-01-19T04:19:09.130Z,0.01
2023-01-19T04:21:09.826Z,0.01
2023-01-19T04:23:09.807Z,0.01
2023-01-19T04:25:09.706Z,0.01
2023-01-19T04:27:09.261Z,0.01
2023-01-19T04:29:09.822Z,0.01
2023-01-19T04:31:09.257Z,0.01
2023-01-19T04:33:10.399Z,0.01
2023-01-19T04:35:09.276Z,0.01
2023-01-19T04:37:09.787Z,0.01
2023-01-19T04:39:09.279Z,0.01
2023-01-19T04:41:09.857Z,0.01
2023-01-19T04:43:09.195Z,0.01
2023-01-19T04:45:09.650Z,0.01
2023-01-19T04:47:09.462Z,0.01
2023-01-19T04:49:09.849Z,0.01
2023-01-19T04:51:09.448Z,0.01
2023-01-19T04:53:10.155Z,0.01
2023-01-19T04:55:09.741Z,0.01
2023-01-19T04:57:10.113Z,0.01
2023-01-19T04:59:09.323Z,0.01
2023-01-19T05:01:10.807Z,0.01
2023-01-19T05:03:09.916Z,0.01
2023-01-19T05:05:09.394Z,0.01
2023-01-19T05:07:08.962Z,0.01
2023-01-19T05:09:09.488Z,0.01
2023-01-19T05:11:09.185Z,0.01
2023-01-19T05:13:10.307Z,0.01
2023-01-19T05:15:09.262Z,0.01
2023-01-19T05:17:10.327Z,0.01
2023-01-19T05:19:09.468Z,0.01
2023-01-19T05:21:12.320Z,0.01
2023-01-19T05:23:10.417Z,0.01
2023-01-19T05:25:09.318Z,0.01
2023-01-19T05:27:09.855Z,0.01
2023-01-19T05:29:09.134Z,0.01
2023-01-19T05:31:10.159Z,0.01
2023-01-19T05:33:10.061Z,0.01
2023-01-19T05:35:08.931Z,0.01
2023-01-19T05:37:09.460Z,0.01
2023-01-19T05:39:20.239Z,0.01
2023-01-19T05:41:09.713Z,0.01
2023-01-19T05:43:09.082Z,0.01
2023-01-19T05:45:09.782Z,0.01
2023-01-19T05:47:09.619Z,0.01
2023-01-19T05:49:09.939Z,0.01
2023-01-19T05:51:09.562Z,0.01
2023-01-19T05:53:10.603Z,0.01
2023-01-19T05:55:09.717Z,0.01
2023-01-19T05:57:09.189Z,0.01
2023-01-19T05:59:09.724Z,0.01
2023-01-19T06:01:13.149Z,0.01
2023-01-19T06:03:11.006Z,0.01
2023-01-19T06:05:09.638Z,0.01
2023-01-19T06:07:10.213Z,0.01
2023-01-19T06:09:09.676Z,0.01
2023-01-19T06:11:10.147Z,0.01
2023-01-19T06:13:10.301Z,0.01
2023-01-19T06:15:09.891Z,0.01
2023-01-19T06:17:09.899Z,0.01
2023-01-19T06:19:09.947Z,0.01
2023-01-19T06:21:09.278Z,0.01
2023-01-19T06:23:10.688Z,0.01
2023-01-19T06:25:11.061Z,0.01
2023-01-19T06:27:09.979Z,0.01
2023-01-19T06:29:09.145Z,0.01
2023-01-19T06:31:10.101Z,0.01
2023-01-19T06:33:10.103Z,0.01
2023-01-19T06:35:09.573Z,0.01
2023-01-19T06:37:09.109Z,0.01
2023-01-19T06:39:09.627Z,0.01
2023-01-19T06:41:10.912Z,0.01
2023-01-19T06:43:09.959Z,0.01
2023-01-19T06:45:09.093Z,0.01
2023-01-19T06:47:27.325Z,0.01
2023-01-19T06:49:09.182Z,0.01
2023-01-19T06:51:11.195Z,0.01
2023-01-19T06:53:10.311Z,0.01
2023-01-19T06:55:09.861Z,0.01
2023-01-19T06:57:10.337Z,0.01
2023-01-19T06:59:10.067Z,0.01
2023-01-19T07:01:14.489Z,0.01
2023-01-19T07:03:36.979Z,0.01
2023-01-19T07:05:09.380Z,0.01
2023-01-19T07:07:08.860Z,0.01
2023-01-19T07:09:09.508Z,0.01
2023-01-19T07:12:01.060Z,0.01
2023-01-19T07:13:10.114Z,0.01
2023-01-19T07:15:09.177Z,0.01
2023-01-19T07:17:09.256Z,0.01
2023-01-19T07:19:09.524Z,0.01
2023-01-19T07:21:09.123Z,0.01
2023-01-19T07:23:10.479Z,0.01
2023-01-19T07:25:09.844Z,0.01
2023-01-19T07:27:08.955Z,0.01
2023-01-19T07:29:10.744Z,0.01
2023-01-19T07:31:09.490Z,0.01
2023-01-19T07:33:10.353Z,0.01
2023-01-19T07:35:09.692Z,0.01
2023-01-19T07:37:09.060Z,0.01
2023-01-19T07:39:09.741Z,0.01
2023-01-19T07:41:09.260Z,0.01
2023-01-19T07:43:10.127Z,0.01
2023-01-19T07:45:09.041Z,0.01
2023-01-19T07:47:09.808Z,0.01
2023-01-19T07:49:08.837Z,0.01
2023-01-19T07:51:12.640Z,0.01
2023-01-19T07:53:08.988Z,0.01
2023-01-19T07:55:09.410Z,0.01
2023-01-19T07:57:09.691Z,0.01
2023-01-19T07:59:09.465Z,0.01
2023-01-19T08:01:13.105Z,0.01
2023-01-19T08:03:12.322Z,0.01
2023-01-19T08:05:09.869Z,0.01
2023-01-19T08:07:09.015Z,0.01
2023-01-19T08:09:09.642Z,0.01
2023-01-19T08:11:09.243Z,0.01
2023-01-19T08:13:10.322Z,0.01
2023-01-19T08:15:09.358Z,0.01
2023-01-19T08:17:09.915Z,0.01
2023-01-19T08:19:09.136Z,0.01
2023-01-19T08:21:09.598Z,0.01
2023-01-19T08:23:09.880Z,0.01
2023-01-19T08:25:12.852Z,0.01
2023-01-19T08:27:08.942Z,0.01
2023-01-19T08:29:09.390Z,0.01
2023-01-19T08:31:21.708Z,0.01
2023-01-19T08:33:10.468Z,0.01
2023-01-19T08:35:08.880Z,0.01
2023-01-19T08:37:09.635Z,0.01
2023-01-19T08:39:09.169Z,0.01
2023-01-19T08:41:09.461Z,0.01
2023-01-19T08:43:09.615Z,0.01
2023-01-19T08:45:21.153Z,0.01
2023-01-19T08:47:09.539Z,0.01
2023-01-19T08:49:09.636Z,0.01
2023-01-19T08:51:09.386Z,0.01
2023-01-19T08:53:10.341Z,0.01
2023-01-19T08:55:09.002Z,0.01
2023-01-19T08:57:09.547Z,0.01
2023-01-19T08:59:25.916Z,0.01
2023-01-19T09:01:15.853Z,0.01
2023-01-19T09:03:11.293Z,0.01
2023-01-19T09:05:09.167Z,0.01
2023-01-19T09:07:09.873Z,0.01
2023-01-19T09:09:09.791Z,0.01
2023-01-19T09:11:10.036Z,0.01
2023-01-19T09:13:09.478Z,0.01
2023-01-19T09:15:09.220Z,0.01
2023-01-19T09:17:09.988Z,0.01
2023-01-19T09:19:09.656Z,0.01
2023-01-19T09:21:09.764Z,0.01
2023-01-19T09:23:09.246Z,0.01
2023-01-19T09:25:09.659Z,0.01
2023-01-19T09:27:09.108Z,0.01
2023-01-19T09:29:10.309Z,0.01
2023-01-19T09:31:09.892Z,0.01
2023-01-19T09:33:10.714Z,0.01
2023-01-19T09:35:09.472Z,0.01
2023-01-19T09:37:08.947Z,0.01
2023-01-19T09:39:10.010Z,0.01
2023-01-19T09:41:09.377Z,0.01
2023-01-19T09:43:09.883Z,0.01
2023-01-19T09:45:10.891Z,0.01
2023-01-19T09:47:09.902Z,0.01
2023-01-19T09:49:09.812Z,0.01
2023-01-19T09:51:09.611Z,0.01
2023-01-19T09:53:09.914Z,0.01
2023-01-19T09:55:09.585Z,0.01
2023-01-19T09:57:09.736Z,0.01
2023-01-19T09:59:10.082Z,0.01
2023-01-19T10:01:13.709Z,0.01
2023-01-19T10:03:10.732Z,0.01
2023-01-19T10:05:09.280Z,0.01
2023-01-19T10:07:11.224Z,0.01
2023-01-19T10:09:09.955Z,0.01
2023-01-19T10:11:09.911Z,0.01
2023-01-19T10:13:09.412Z,0.01
2023-01-19T10:15:08.948Z,0.01
2023-01-19T10:17:09.601Z,0.01
2023-01-19T10:19:09.895Z,0.01
2023-01-19T10:21:09.829Z,0.01
2023-01-19T10:23:10.620Z,0.01
2023-01-19T10:25:09.680Z,0.01
2023-01-19T10:27:09.206Z,0.01
2023-01-19T10:29:11.605Z,0.01
2023-01-19T10:31:09.912Z,0.01
2023-01-19T10:33:10.904Z,0.01
2023-01-19T10:35:09.375Z,0.01
2023-01-19T10:37:10.090Z,0.01
2023-01-19T10:39:09.428Z,0.01
2023-01-19T10:41:09.018Z,0.01
2023-01-19T10:43:10.580Z,0.01
2023-01-19T10:45:09.230Z,0.01
2023-01-19T10:47:09.957Z,0.01
2023-01-19T10:49:09.007Z,0.01
2023-01-19T10:51:09.644Z,0.01
2023-01-19T10:53:09.325Z,0.01
2023-01-19T10:55:09.637Z,0.01
2023-01-19T10:57:09.261Z,0.01
2023-01-19T10:59:10.254Z,0.01
2023-01-19T11:01:14.383Z,0.01
2023-01-19T11:03:11.716Z,0.01
2023-01-19T11:05:12.585Z,0.35
2023-01-19T11:07:09.076Z,0.35
2023-01-19T11:09:09.298Z,0.35
2023-01-19T11:11:11.771Z,0.35
2023-01-19T11:13:09.748Z,7.07
2023-01-19T11:15:09.758Z,7.07
2023-01-19T11:17:09.596Z,7.07
2023-01-19T11:19:10.795Z,0.03
2023-01-19T11:21:09.414Z,0.03
2023-01-19T11:23:12.045Z,0.02
2023-01-19T11:25:09.126Z,0.02
2023-01-19T11:27:09.731Z,0.02
2023-01-19T11:29:09.241Z,0.02
2023-01-19T11:31:09.738Z,0.02
2023-01-19T11:33:09.256Z,0.02
2023-01-19T11:35:09.650Z,0.02
2023-01-19T11:37:09.228Z,0.01
2023-01-19T11:39:09.319Z,0.01
2023-01-19T11:41:10.765Z,0.01
2023-01-19T11:43:09.693Z,0.01
2023-01-19T11:45:09.246Z,0.01
2023-01-19T11:47:12.553Z,0.01
2023-01-19T11:49:09.809Z,0.01
2023-01-19T11:51:09.775Z,0.01
2023-01-19T11:53:09.250Z,0.01
2023-01-19T11:55:09.592Z,1.12
2023-01-19T11:57:09.309Z,1.12
2023-01-19T11:59:10.567Z,1.12
2023-01-19T12:01:12.066Z,0.01
2023-01-19T12:03:10.442Z,0.01
2023-01-19T12:05:09.554Z,0.01
2023-01-19T12:07:09.780Z,1.02
2023-01-19T12:09:12.127Z,1.02
2023-01-19T12:11:09.448Z,1.02
2023-01-19T12:13:10.048Z,0.01
2023-01-19T12:15:09.400Z,0.01
2023-01-19T12:17:10.181Z,0.95
2023-01-19T12:19:09.964Z,0.01
2023-01-19T12:21:10.365Z,0.01
2023-01-19T12:23:11.087Z,0.01
2023-01-19T12:25:09.887Z,0.93
2023-01-19T12:27:09.255Z,0.93
2023-01-19T12:29:09.675Z,0.93
2023-01-19T12:31:10.363Z,0.01
2023-01-19T12:33:10.000Z,0.01
2023-01-19T12:35:09.433Z,0.01
2023-01-19T12:37:09.779Z,0.01
2023-01-19T12:39:09.101Z,0.01
2023-01-19T12:41:09.759Z,0.01
2023-01-19T12:43:09.306Z,0.87
2023-01-19T12:45:09.584Z,0.87
2023-01-19T12:47:09.160Z,0.87
2023-01-19T12:49:09.650Z,0.01
2023-01-19T12:51:09.295Z,0.01
2023-01-19T12:53:09.971Z,0.01
2023-01-19T12:55:09.091Z,0.01
2023-01-19T12:57:09.670Z,0.01
2023-01-19T12:59:09.292Z,0.01
2023-01-19T13:01:12.981Z,0.83
2023-01-19T13:03:10.254Z,0.83
2023-01-19T13:05:09.363Z,0.83
2023-01-19T13:07:09.822Z,0.01
2023-01-19T13:09:09.213Z,0.01
2023-01-19T13:11:09.779Z,0.01
2023-01-19T13:13:09.003Z,0.84
2023-01-19T13:15:09.567Z,0.84
2023-01-19T13:17:09.236Z,0.84
2023-01-19T13:19:10.026Z,0.01
2023-01-19T13:21:09.486Z,0.01
2023-01-19T13:23:09.785Z,0.01
2023-01-19T13:25:09.676Z,0.01
2023-01-19T13:27:09.671Z,0.01
2023-01-19T13:29:09.116Z,0.01
2023-01-19T13:31:10.961Z,0.01
2023-01-19T13:33:09.230Z,0.01
2023-01-19T13:35:10.212Z,0.01
2023-01-19T13:37:09.127Z,0.01
2023-01-19T13:39:09.659Z,0.01
2023-01-19T13:41:09.895Z,0.01
2023-01-19T13:43:09.621Z,0.01
2023-01-19T13:45:09.028Z,0.01
2023-01-19T13:47:09.969Z,0.01
2023-01-19T13:49:09.258Z,0.01
2023-01-19T13:51:10.290Z,0.01
2023-01-19T13:53:09.222Z,0.01
2023-01-19T13:55:13.960Z,0.84
2023-01-19T13:57:09.272Z,0.84
2023-01-19T13:59:09.859Z,0.84
2023-01-19T14:01:12.332Z,0.01
2023-01-19T14:03:11.369Z,0.01
2023-01-19T14:05:09.262Z,0.01
2023-01-19T14:07:12.441Z,0.01
2023-01-19T14:09:09.456Z,0.01
2023-01-19T14:11:09.914Z,0.01
2023-01-19T14:13:22.231Z,0.01
2023-01-19T14:15:10.978Z,0.01
2023-01-19T14:17:09.421Z,0.01
2023-01-19T14:19:09.835Z,0.01
2023-01-19T14:21:09.590Z,0.01
2023-01-19T14:23:09.646Z,0.01
2023-01-19T14:25:09.213Z,0.01
2023-01-19T14:27:09.623Z,0.01
2023-01-19T14:29:09.052Z,0.01
2023-01-19T14:31:09.926Z,0.01
2023-01-19T14:33:09.065Z,0.01
2023-01-19T14:35:09.706Z,0.01
2023-01-19T14:37:09.818Z,0.01
2023-01-19T14:39:09.135Z,0.01
2023-01-19T14:41:09.973Z,0.01
2023-01-19T14:43:09.265Z,0.01
2023-01-19T14:45:10.008Z,0.01
2023-01-19T14:47:09.708Z,0.01
2023-01-19T14:49:10.046Z,0.01
2023-01-19T14:51:25.634Z,0.01
2023-01-19T14:53:09.800Z,0.01
2023-01-19T14:55:09.620Z,0.01
2023-01-19T14:57:09.661Z,0.8
2023-01-19T14:59:09.003Z,0.8
2023-01-19T15:01:14.662Z,0.8
2023-01-19T15:03:10.587Z,0.79
2023-01-19T15:05:09.480Z,0.79
2023-01-19T15:07:11.950Z,0.79
2023-01-19T15:09:09.397Z,0.01
2023-01-19T15:11:10.175Z,0.01
2023-01-19T15:13:09.283Z,0.01
2023-01-19T15:15:09.258Z,0.01
2023-01-19T15:17:09.699Z,0.01
2023-01-19T15:19:09.046Z,0.01
2023-01-19T15:21:09.480Z,0.74
2023-01-19T15:23:09.243Z,0.74
2023-01-19T15:25:10.105Z,0.74
2023-01-19T15:27:09.283Z,0.73
2023-01-19T15:29:09.610Z,0.73
2023-01-19T15:31:09.647Z,0.73
2023-01-19T15:33:09.817Z,0.01
2023-01-19T15:35:09.225Z,0.01
2023-01-19T15:37:09.721Z,0.01
2023-01-19T15:39:08.996Z,0.01
2023-01-19T15:41:14.020Z,0.01
2023-01-19T15:43:09.053Z,0.01
2023-01-19T15:45:09.879Z,0.01
2023-01-19T15:47:09.150Z,0.01
2023-01-19T15:49:09.842Z,0.01
2023-01-19T15:51:09.246Z,0.75
2023-01-19T15:53:09.716Z,0.75
2023-01-19T15:55:09.349Z,0.75
2023-01-19T15:57:09.562Z,0.75
2023-01-19T15:59:10.317Z,0.75
2023-01-19T16:01:13.345Z,0.75
2023-01-19T16:03:10.531Z,0.75
2023-01-19T16:05:10.006Z,0.75
2023-01-19T16:07:09.276Z,0.76
2023-01-19T16:09:09.808Z,0.76
2023-01-19T16:11:09.337Z,0.76
2023-01-19T16:13:09.829Z,0.76
2023-01-19T16:15:09.360Z,0.76
2023-01-19T16:17:10.203Z,0.75
2023-01-19T16:19:09.296Z,0.75
2023-01-19T16:21:11.337Z,0.75
2023-01-19T16:23:25.357Z,0.76
2023-01-19T16:25:08.987Z,0.76
2023-01-19T16:27:09.296Z,0.01
2023-01-19T16:29:09.760Z,0.01
2023-01-19T16:31:09.831Z,0.01
2023-01-19T16:33:09.625Z,0.01
2023-01-19T16:35:09.106Z,0.01
2023-01-19T16:37:09.740Z,0.01
2023-01-19T16:39:09.153Z,0.01
2023-01-19T16:41:09.679Z,0.01
2023-01-19T16:43:09.040Z,0.01
2023-01-19T16:45:09.725Z,0.74
2023-01-19T16:47:09.447Z,0.74
2023-01-19T16:49:09.663Z,0.74
2023-01-19T16:51:09.705Z,0.74
2023-01-19T16:53:09.645Z,0.74
2023-01-19T16:55:09.198Z,0.74
2023-01-19T16:57:09.278Z,0.75
2023-01-19T16:59:08.885Z,0.75
2023-01-19T17:01:12.731Z,0.75
2023-01-19T17:03:10.567Z,0.74
2023-01-19T17:05:09.606Z,0.74
2023-01-19T17:07:09.078Z,0.74
2023-01-19T17:09:09.729Z,0.01
2023-01-19T17:11:09.651Z,0.01
2023-01-19T17:13:09.435Z,0.01
2023-01-19T17:15:09.186Z,0.01
2023-01-19T17:17:11.082Z,0.01
2023-01-19T17:19:09.002Z,0.01
2023-01-19T17:21:10.237Z,0.01
2023-01-19T17:23:09.261Z,0.01
2023-01-19T17:25:09.588Z,0.01
2023-01-19T17:27:09.143Z,0.01
2023-01-19T17:29:09.554Z,0.01
2023-01-19T17:31:10.826Z,0.01
2023-01-19T17:33:09.629Z,0.01
2023-01-19T17:35:09.007Z,0.01
2023-01-19T17:37:09.631Z,0.01
2023-01-19T17:39:09.213Z,0.01
2023-01-19T17:41:10.074Z,0.01
2023-01-19T17:43:09.146Z,0.01
2023-01-19T17:45:09.902Z,0.01
2023-01-19T17:47:11.406Z,0.01
2023-01-19T17:49:09.619Z,0.01
2023-01-19T17:51:10.354Z,0.01
2023-01-19T17:53:09.659Z,0.01
2023-01-19T17:55:09.650Z,0.01
2023-01-19T17:57:09.334Z,0.01
2023-01-19T17:59:09.785Z,0.01
2023-01-19T18:01:13.213Z,0.01
2023-01-19T18:03:10.723Z,0.01
2023-01-19T18:05:09.277Z,0.01
2023-01-19T18:07:09.793Z,0.01
2023-01-19T18:09:09.269Z,0.01
2023-01-19T18:11:10.043Z,0.01
2023-01-19T18:13:09.112Z,0.01
2023-01-19T18:15:09.625Z,0.01
2023-01-19T18:17:09.442Z,0.01
2023-01-19T18:19:09.560Z,0.01
2023-01-19T18:21:10.006Z,0.01
2023-01-19T18:23:09.654Z,0.01
2023-01-19T18:25:09.072Z,0.01
2023-01-19T18:27:09.361Z,0.01
2023-01-19T18:29:08.995Z,0.01
2023-01-19T18:31:10.756Z,0.01
2023-01-19T18:33:12.052Z,0.01
2023-01-19T18:35:09.359Z,0.01
2023-01-19T18:37:09.032Z,0.01
2023-01-19T18:39:09.658Z,1.3
2023-01-19T18:41:09.363Z,1.3
2023-01-19T18:43:09.563Z,1.3
2023-01-19T18:45:09.245Z,1.3
2023-01-19T18:47:10.131Z,1.3
2023-01-19T18:49:09.308Z,1.3
2023-01-19T18:51:10.255Z,1.3
2023-01-19T18:53:09.419Z,1.3
2023-01-19T18:55:09.825Z,1.3
2023-01-19T18:57:09.341Z,1.3
2023-01-19T18:59:08.814Z,1.3
2023-01-19T19:01:14.767Z,1.3
2023-01-19T19:03:09.424Z,1.3
2023-01-19T19:05:09.677Z,1.3
2023-01-19T19:07:09.284Z,1.3
2023-01-19T19:09:09.781Z,1.3
2023-01-19T19:11:09.681Z,1.3
2023-01-19T19:13:08.815Z,1.3
2023-01-19T19:15:09.486Z,1.3
2023-01-19T19:17:12.423Z,1.3
2023-01-19T19:19:09.480Z,1.3
2023-01-19T19:21:10.397Z,1.3
2023-01-19T19:23:10.893Z,1.3
2023-01-19T19:25:08.997Z,1.3
2023-01-19T19:27:09.351Z,1.3
2023-01-19T19:29:08.882Z,1.3
2023-01-19T19:31:10.364Z,1.3
2023-01-19T19:33:09.056Z,1.3
2023-01-19T19:35:09.532Z,1.3
2023-01-19T19:37:12.431Z,1.3
2023-01-19T19:39:09.761Z,1.3
2023-01-19T19:41:09.459Z,1.3
2023-01-19T19:43:10.283Z,1.3
2023-01-19T19:45:09.379Z,1.3
2023-01-19T19:47:09.935Z,1.3
2023-01-19T19:49:12.661Z,1.3
2023-01-19T19:51:28.268Z,1.3
2023-01-19T19:53:09.304Z,1.3
2023-01-19T19:55:09.983Z,1.3
2023-01-19T19:57:09.416Z,1.3
2023-01-19T19:59:08.969Z,1.3
2023-01-19T20:01:13.149Z,1.3
2023-01-19T20:03:09.655Z,1.3
2023-01-19T20:05:09.314Z,1.3
2023-01-19T20:07:09.746Z,1.3
2023-01-19T20:09:09.147Z,1.3
2023-01-19T20:11:10.215Z,1.3
2023-01-19T20:13:09.366Z,1.3
2023-01-19T20:15:09.894Z,1.3
2023-01-19T20:17:09.523Z,1.3
2023-01-19T20:19:09.525Z,1.3
2023-01-19T20:21:09.585Z,1.3
2023-01-19T20:23:09.835Z,1.3
2023-01-19T20:25:09.272Z,1.3
2023-01-19T20:27:09.724Z,1.3
2023-01-19T20:29:09.187Z,1.3
2023-01-19T20:31:10.725Z,1.3
2023-01-19T20:33:09.323Z,1.3
2023-01-19T20:35:09.754Z,1.3
2023-01-19T20:37:09.517Z,1.3
2023-01-19T20:39:09.008Z,1.3
2023-01-19T20:41:09.569Z,1.3
2023-01-19T20:43:09.183Z,1.3
2023-01-19T20:45:09.965Z,1.3
2023-01-19T20:47:09.325Z,1.3
2023-01-19T20:49:09.080Z,1.3
2023-01-19T20:51:09.532Z,1.3
2023-01-19T20:53:09.119Z,1.3
2023-01-19T20:55:09.441Z,1.3
2023-01-19T20:57:08.872Z,1.3
2023-01-19T20:59:09.557Z,1.3
2023-01-19T21:01:12.942Z,1.3
2023-01-19T21:03:09.844Z,1.3
2023-01-19T21:05:09.766Z,1.3
2023-01-19T21:07:09.289Z,1.3
2023-01-19T21:09:09.667Z,1.3
2023-01-19T21:11:09.146Z,1.3
2023-01-19T21:13:09.585Z,1.3
2023-01-19T21:15:09.259Z,1.3
2023-01-19T21:17:09.825Z,1.3
2023-01-19T21:19:09.119Z,1.3
2023-01-19T21:21:20.899Z,1.3
2023-01-19T21:23:09.203Z,1.3
2023-01-19T21:25:09.729Z,1.3
2023-01-19T21:27:08.999Z,1.3
2023-01-19T21:29:09.467Z,1.3
2023-01-19T21:31:09.475Z,1.3
2023-01-19T21:33:09.520Z,1.3
2023-01-19T21:35:09.076Z,1.3
2023-01-19T21:37:09.701Z,1.3
2023-01-19T21:39:09.118Z,1.3
2023-01-19T21:41:09.559Z,1.3
2023-01-19T21:43:09.119Z,1.3
2023-01-19T21:45:09.808Z,1.3
2023-01-19T21:47:09.297Z,1.3
2023-01-19T21:49:09.721Z,1.3
2023-01-19T21:51:09.527Z,1.3
2023-01-19T21:53:09.851Z,1.3
2023-01-19T21:55:09.151Z,1.3
2023-01-19T21:57:09.675Z,1.3
2023-01-19T21:59:09.327Z,1.3
2023-01-19T22:01:12.444Z,1.3
2023-01-19T22:03:37.614Z,1.3
2023-01-19T22:05:09.567Z,1.3
2023-01-19T22:07:09.270Z,1.3
2023-01-19T22:09:09.904Z,1.3
2023-01-19T22:11:09.256Z,1.3
2023-01-19T22:13:09.656Z,1.3
2023-01-19T22:15:09.403Z,1.3
2023-01-19T22:17:10.111Z,1.3
2023-01-19T22:19:09.975Z,1.3
2023-01-19T22:21:09.887Z,1.3
2023-01-19T22:23:09.255Z,1.3
2023-01-19T22:25:09.517Z,1.3
2023-01-19T22:27:09.022Z,1.3
2023-01-19T22:29:09.625Z,1.3
2023-01-19T22:31:09.896Z,1.3
2023-01-19T22:33:09.516Z,1.3
2023-01-19T22:35:09.012Z,1.3
2023-01-19T22:37:09.610Z,1.3
2023-01-19T22:39:09.234Z,1.3
2023-01-19T22:41:09.709Z,1.3
2023-01-19T22:43:09.236Z,1.3
2023-01-19T22:45:09.677Z,1.3
2023-01-19T22:47:09.276Z,1.3
2023-01-19T22:49:09.613Z,1.3
2023-01-19T22:51:09.242Z,1.3
2023-01-19T22:53:09.812Z,1.3
2023-01-19T22:55:09.128Z,1.3
2023-01-19T22:57:09.760Z,1.3
2023-01-19T22:59:09.233Z,1.3
2023-01-19T23:01:16.357Z,1.3
2023-01-19T23:03:09.638Z,1.3
2023-01-19T23:05:08.955Z,1.3
2023-01-19T23:07:09.667Z,1.3
2023-01-19T23:09:08.932Z,1.3
2023-01-19T23:11:09.458Z,1.3
2023-01-19T23:13:08.985Z,1.3
2023-01-19T23:15:09.549Z,1.3
2023-01-19T23:17:09.077Z,1.3
2023-01-19T23:19:09.491Z,1.3
2023-01-19T23:21:09.202Z,1.3
2023-01-19T23:23:09.664Z,1.3
2023-01-19T23:25:09.068Z,1.3
2023-01-19T23:27:09.562Z,1.3
2023-01-19T23:29:09.169Z,1.3
2023-01-19T23:31:10.125Z,1.3
2023-01-19T23:33:09.045Z,1.3
2023-01-19T23:35:09.548Z,1.3
2023-01-19T23:37:09.067Z,1.3
2023-01-19T23:39:09.646Z,1.3
2023-01-19T23:41:09.329Z,1.3
2023-01-19T23:43:08.965Z,1.3
2023-01-19T23:45:10.021Z,1.3
2023-01-19T23:47:09.414Z,1.3
2023-01-19T23:49:09.439Z,1.3
2023-01-19T23:51:09.262Z,1.3
2023-01-19T23:53:09.725Z,1.3
2023-01-19T23:55:09.093Z,1.3
2023-01-19T23:57:09.636Z,1.3
2023-01-19T23:59:09.228Z,1.3
